Parc Tiburon, Puerto Rico
Current Conditions -  °F | °C
As of 1:56 PM on Thursday 27 Nov 2014 (Local Time) from TJSJ Reporting Station
Scattered Clouds Scattered Clouds  
Wind Chill: 85°   Ceiling: Unl
Heat Index: 89°   Visibility: 10mi
Dew Point: 70°   Wind: 10mph
Humidity: 61%   Direction: 50°NE
Pressure: 29.94"   Gusts: NA
Location:  18.4548°N, 66.5389°W
Report Text: TJSJ 271756Z 05009KT 10SM SCT038 29/21 A2994 RMK AO2 SLP137 T02940211 10294 20250 56023
Loading
Personal Weather Stations






























Interactive Weather Map New forecast layout! Learn more

10-Day Weather Forecast

Advertisements
Track Severe Weather on mobile